Time;durP1;ratioP1;P1;durP2;ratioP2;P2;SDS_P1;SDS_P2;PMS_P1;PMS_P2;Temp;Humidity;BMP_temperature;BMP_pressure;BME280_temperature;BME280_humidity;BME280_pressure;Samples;Min_cycle;Max_cycle;Signal;HPM_P1;HPM_P2
2024/04/15 00:02:43;;;;;;;5.70;5.20;;;14.10;99.90;;;14.76;100.00;97664.19;11079755;26;20358;-64
2024/04/15 00:07:48;;;;;;;5.25;4.85;;;14.00;99.90;;;14.74;100.00;97657.25;11082530;26;20259;-62
2024/04/15 00:12:56;;;;;;;5.72;5.13;;;13.90;99.90;;;14.58;100.00;97642.94;11088453;26;20303;-64
2024/04/15 00:18:02;;;;;;;5.72;5.22;;;13.80;99.90;;;14.58;100.00;97653.22;11082484;26;20248;-63
2024/04/15 00:23:07;;;;;;;5.63;5.13;;;13.80;99.90;;;14.57;100.00;97651.47;11086910;26;20287;-63
2024/04/15 00:28:16;;;;;;;5.38;4.97;;;13.80;99.90;;;14.59;100.00;97635.28;11088812;26;20315;-62
2024/04/15 00:33:23;;;;;;;5.32;4.93;;;13.80;99.90;;;14.47;100.00;97639.03;11077925;26;20746;-63
2024/04/15 00:38:28;;;;;;;4.75;4.35;;;13.60;99.90;;;14.39;100.00;97642.22;11086670;26;20986;-66
2024/04/15 00:43:36;;;;;;;5.85;5.45;;;13.60;99.90;;;14.43;100.00;97654.34;11090254;26;20289;-62
2024/04/15 00:48:43;;;;;;;5.97;5.40;;;13.70;99.90;;;14.49;100.00;97639.97;11081548;26;20360;-64
2024/04/15 00:53:51;;;;;;;8.82;7.90;;;13.70;99.90;;;14.57;100.00;97651.47;11085206;26;20536;-62
2024/04/15 00:59:01;;;;;;;9.63;8.60;;;13.80;99.90;;;14.64;100.00;97650.88;11081951;26;20252;-63
2024/04/15 01:04:06;;;;;;;8.07;6.53;;;13.80;99.90;;;14.73;100.00;97622.91;11081679;26;21092;-62
2024/04/15 01:09:12;;;;;;;8.38;6.55;;;13.80;99.90;;;14.53;100.00;97614.44;11080702;26;20290;-62
2024/04/15 01:14:21;;;;;;;7.40;6.68;;;13.70;99.90;;;14.49;100.00;97621.97;11082279;26;20596;-64
2024/04/15 01:19:26;;;;;;;6.93;6.32;;;13.70;99.90;;;14.53;100.00;97618.72;11082408;26;20246;-63
2024/04/15 01:24:34;;;;;;;7.15;6.55;;;13.70;99.90;;;14.59;100.00;97618.94;11079770;26;20272;-61
2024/04/15 01:29:40;;;;;;;6.05;5.45;;;13.80;99.90;;;14.59;100.00;97644.66;11083586;26;20253;-64
2024/04/15 01:34:45;;;;;;;6.45;5.80;;;13.80;99.90;;;14.64;100.00;97638.00;11074335;26;20250;-65
2024/04/15 01:39:53;;;;;;;6.90;6.28;;;13.90;99.90;;;14.96;100.00;97610.88;11078014;26;20360;-63
2024/04/15 01:44:59;;;;;;;6.00;5.60;;;14.00;99.90;;;14.87;100.00;97606.28;11080379;26;20306;-65
2024/04/15 01:50:05;;;;;;;5.70;5.20;;;14.00;99.90;;;14.74;100.00;97583.50;11074744;26;20261;-66
2024/04/15 01:55:13;;;;;;;6.72;6.10;;;14.00;99.90;;;14.74;100.00;97596.38;11080891;26;20287;-64
2024/04/15 02:00:18;;;;;;;6.13;5.72;;;14.00;99.90;;;14.58;100.00;97587.22;11074179;26;20299;-62
2024/04/15 02:05:24;;;;;;;6.20;5.65;;;13.80;99.90;;;14.60;100.00;97601.00;11078070;26;20311;-65
2024/04/15 02:10:32;;;;;;;6.18;5.68;;;13.90;99.90;;;14.67;100.00;97609.81;11081116;26;20306;-63
2024/04/15 02:15:38;;;;;;;6.00;5.53;;;14.00;99.90;;;14.70;100.00;97601.34;11083258;26;20367;-62
2024/04/15 02:20:44;;;;;;;6.57;5.97;;;13.90;99.90;;;14.76;100.00;97589.56;11085352;26;20252;-60
2024/04/15 02:25:52;;;;;;;7.30;6.60;;;14.00;99.90;;;14.76;100.00;97587.00;11089173;26;20251;-62
2024/04/15 02:30:58;;;;;;;6.80;5.45;;;14.00;99.90;;;14.73;100.00;97573.16;11082883;26;20263;-65
2024/04/15 02:36:03;;;;;;;6.63;6.03;;;14.00;99.90;;;14.77;100.00;97565.63;11082400;26;20321;-64
2024/04/15 02:41:11;;;;;;;6.35;5.65;;;14.00;99.90;;;14.85;100.00;97581.31;11088576;26;20282;-61
2024/04/15 02:46:17;;;;;;;6.47;5.82;;;14.10;99.90;;;14.93;100.00;97581.59;11086145;26;20249;-66
2024/04/15 02:51:22;;;;;;;6.25;5.65;;;14.20;99.90;;;14.93;100.00;97569.59;11081801;26;20298;-64
2024/04/15 02:56:31;;;;;;;6.70;6.20;;;14.20;99.90;;;15.03;100.00;97570.81;11087755;26;20747;-65
2024/04/15 03:01:36;;;;;;;6.63;6.05;;;14.20;99.90;;;15.09;100.00;97560.72;11086655;26;20794;-66
2024/04/15 03:06:42;;;;;;;6.60;6.10;;;14.20;99.90;;;14.98;100.00;97562.03;11089002;26;20364;-62
2024/04/15 03:11:50;;;;;;;5.05;4.65;;;14.20;99.90;;;14.94;100.00;97542.19;11075975;26;20794;-62
2024/04/15 03:16:55;;;;;;;6.80;6.20;;;14.10;99.90;;;14.92;100.00;97530.94;11088089;26;20302;-62
2024/04/15 03:22:01;;;;;;;6.15;5.65;;;14.10;99.90;;;14.94;100.00;97539.59;11087339;26;20846;-66
2024/04/15 03:27:09;;;;;;;6.20;5.60;;;14.10;99.90;;;14.90;100.00;97540.31;11081824;26;20255;-62
2024/04/15 03:32:15;;;;;;;6.68;6.05;;;14.00;99.90;;;14.80;100.00;97547.72;11085740;26;20767;-62
2024/04/15 03:37:20;;;;;;;6.47;5.88;;;14.00;99.90;;;14.73;100.00;97529.41;11082174;26;20264;-64
2024/04/15 03:42:28;;;;;;;5.90;5.47;;;13.90;99.90;;;14.62;100.00;97539.31;11086677;26;20261;-65
2024/04/15 03:47:34;;;;;;;6.05;5.40;;;13.90;99.90;;;14.58;100.00;97540.03;11102561;21;20266;-62
2024/04/15 03:52:39;;;;;;;6.75;5.63;;;13.80;99.90;;;14.57;100.00;97528.88;11160186;26;20392;-61
2024/04/15 03:57:48;;;;;;;4.97;4.53;;;13.80;99.90;;;14.50;100.00;97506.28;11141984;26;20252;-65
2024/04/15 04:02:53;;;;;;;5.28;4.57;;;13.70;99.90;;;14.53;100.00;97500.41;11071617;26;21084;-63
2024/04/15 04:07:59;;;;;;;4.97;4.50;;;13.80;99.90;;;14.54;100.00;97476.47;11073796;26;20302;-66
2024/04/15 04:13:07;;;;;;;5.97;5.50;;;13.80;99.90;;;14.58;100.00;97475.75;11080916;26;20731;-65
2024/04/15 04:18:13;;;;;;;5.25;4.85;;;13.80;99.90;;;14.62;100.00;97500.72;11081077;26;20926;-62
2024/04/15 04:23:19;;;;;;;5.20;4.80;;;13.80;99.90;;;14.54;100.00;97497.91;11078234;26;20305;-61
2024/04/15 04:28:27;;;;;;;4.90;4.50;;;13.70;99.90;;;14.59;100.00;97500.63;11073559;26;20269;-66
2024/04/15 04:33:33;;;;;;;5.68;5.18;;;13.80;99.90;;;14.58;100.00;97501.47;11075952;26;20747;-66
2024/04/15 04:38:38;;;;;;;5.15;4.75;;;13.80;99.90;;;14.57;100.00;97517.72;11102130;26;20259;-64
2024/04/15 04:43:47;;;;;;;4.60;4.07;;;13.80;99.90;;;14.58;100.00;97534.91;11101782;26;20252;-63
2024/04/15 04:48:52;;;;;;;4.68;4.35;;;13.80;99.90;;;14.54;100.00;97528.78;11101601;26;20256;-63
2024/04/15 04:53:58;;;;;;;6.40;5.47;;;13.70;99.90;;;14.61;100.00;97517.00;11108632;26;20356;-63
2024/04/15 04:59:06;;;;;;;4.80;4.40;;;13.70;99.90;;;14.52;100.00;97524.41;11106814;26;20291;-64
2024/04/15 05:04:12;;;;;;;4.55;4.25;;;13.70;99.90;;;14.55;100.00;97521.94;11102642;26;20259;-63
2024/04/15 05:09:17;;;;;;;4.63;4.18;;;13.70;99.90;;;14.52;100.00;97520.13;11106427;26;22217;-65
2024/04/15 05:14:25;;;;;;;4.13;3.83;;;13.70;99.90;;;14.68;99.80;97520.66;11107509;26;20751;-64
2024/04/15 05:19:31;;;;;;;4.70;4.28;;;13.80;99.90;;;14.74;98.75;97529.50;11107339;26;20302;-64
2024/04/15 05:24:36;;;;;;;5.25;4.25;;;13.80;99.90;;;14.71;98.42;97537.09;11108496;26;20259;-64
2024/04/15 05:29:45;;;;;;;5.88;4.70;;;13.90;99.90;;;14.70;98.11;97535.31;11108683;26;20264;-64
2024/04/15 05:34:50;;;;;;;5.78;4.03;;;13.80;99.90;;;14.68;98.23;97531.84;11109284;26;20298;-64
2024/04/15 05:39:56;;;;;;;4.20;3.80;;;13.80;99.90;;;14.71;97.70;97542.25;11103600;26;20268;-64
2024/04/15 05:45:04;;;;;;;4.43;4.03;;;13.90;99.90;;;14.83;96.64;97537.53;11106069;26;20255;-63
2024/04/15 05:50:09;;;;;;;4.70;4.30;;;13.90;99.90;;;14.86;94.17;97539.34;11109007;26;20325;-64
2024/04/15 05:55:15;;;;;;;4.93;4.45;;;14.00;99.90;;;14.92;91.38;97551.53;11116552;26;20271;-62
2024/04/15 06:00:24;;;;;;;5.22;4.20;;;14.00;99.90;;;14.78;91.77;97527.88;11112869;26;20260;-65
2024/04/15 06:05:29;;;;;;;4.80;4.25;;;14.00;99.90;;;14.67;92.27;97529.22;11118253;26;20259;-65
2024/04/15 06:10:35;;;;;;;5.40;4.13;;;13.90;99.90;;;14.48;92.14;97537.91;11114215;26;20302;-65
2024/04/15 06:15:43;;;;;;;4.90;3.80;;;13.80;99.90;;;14.37;92.30;97540.13;11117842;26;20306;-63
2024/04/15 06:20:49;;;;;;;3.83;3.53;;;13.80;99.90;;;14.42;92.76;97536.88;11116167;26;20318;-64
2024/04/15 06:25:55;;;;;;;4.90;3.65;;;13.80;99.90;;;14.46;90.68;97532.72;11118720;26;20316;-65
2024/04/15 06:31:03;;;;;;;3.50;3.10;;;13.80;99.90;;;14.56;91.57;97541.69;11115574;26;20264;-64
2024/04/15 06:36:09;;;;;;;4.55;3.63;;;13.90;99.90;;;14.95;88.59;97556.78;11117226;26;20363;-64
2024/04/15 06:41:15;;;;;;;3.53;3.10;;;14.10;99.90;;;14.79;89.82;97566.56;11114786;26;20260;-64
2024/04/15 06:46:24;;;;;;;3.42;3.13;;;14.00;99.90;;;14.73;90.26;97556.00;11114210;26;20291;-64
2024/04/15 06:51:30;;;;;;;3.80;3.50;;;14.00;99.90;;;14.71;90.37;97562.81;11112824;26;20267;-64
2024/04/15 06:56:36;;;;;;;3.72;3.40;;;14.00;99.90;;;14.64;88.51;97541.13;11113083;26;20665;-65
2024/04/15 07:01:44;;;;;;;4.18;3.60;;;13.90;99.90;;;14.40;89.48;97555.66;11108902;26;20267;-64
2024/04/15 07:06:50;;;;;;;4.40;3.85;;;13.80;99.90;;;14.18;89.66;97546.25;11114695;26;20291;-65
2024/04/15 07:11:56;;;;;;;5.60;3.15;;;13.60;99.90;;;14.09;89.14;97549.34;11110202;26;20259;-65
2024/04/15 07:17:04;;;;;;;3.80;3.33;;;13.60;99.90;;;14.20;90.14;97542.91;11109994;26;20310;-65
2024/04/15 07:22:10;;;;;;;5.22;3.40;;;13.70;99.90;;;14.31;89.95;97540.75;11113452;26;20304;-65
2024/04/15 07:27:15;;;;;;;4.25;3.85;;;13.80;99.90;;;14.32;88.50;97557.94;11116868;26;20804;-64
2024/04/15 07:32:23;;;;;;;4.20;3.10;;;13.70;99.90;;;14.32;87.25;97557.94;11111692;26;20286;-64
2024/04/15 07:37:29;;;;;;;4.10;3.28;;;13.70;99.90;;;14.40;88.36;97564.25;11113167;26;20696;-64
2024/04/15 07:42:35;;;;;;;4.00;3.40;;;13.80;99.90;;;14.44;89.13;97562.66;11108816;26;20267;-65
2024/04/15 07:47:51;;;;;;;5.43;4.10;;;13.80;99.90;;;14.63;89.32;97569.38;11113230;26;20263;-65
2024/04/15 07:52:57;;;;;;;4.90;3.67;;;13.90;99.90;;;14.64;88.15;97568.56;11108958;26;20256;-64
2024/04/15 07:58:02;;;;;;;3.90;3.60;;;13.90;99.90;;;14.75;86.29;97553.50;11111087;26;20325;-64
2024/04/15 08:03:11;;;;;;;6.70;4.18;;;14.00;99.90;;;14.94;86.86;97570.50;11108734;26;22893;-64
2024/04/15 08:08:17;;;;;;;5.07;4.32;;;14.20;99.90;;;15.26;85.62;97554.44;11114940;26;20252;-64
2024/04/15 08:13:22;;;;;;;6.05;4.10;;;14.50;99.90;;;15.65;81.64;97548.88;11115521;26;20326;-63
2024/04/15 08:18:30;;;;;;;6.68;4.30;;;14.70;99.90;;;15.75;79.89;97556.06;11115351;26;20341;-64
2024/04/15 08:23:36;;;;;;;5.38;4.22;;;14.90;99.90;;;15.70;79.79;97547.31;11116257;26;20268;-64
2024/04/15 08:28:42;;;;;;;6.10;3.95;;;14.70;99.90;;;15.73;80.17;97544.84;11112404;26;20653;-63
2024/04/15 08:33:50;;;;;;;5.80;4.80;;;14.70;99.90;;;15.49;82.57;97536.31;11118408;26;20378;-64
2024/04/15 08:38:55;;;;;;;7.65;4.88;;;14.60;99.90;;;15.15;85.47;97530.03;11112998;26;20255;-63
2024/04/15 08:44:04;;;;;;;7.18;4.63;;;14.50;99.90;;;15.07;86.90;97534.03;11114850;26;20260;-63
2024/04/15 08:49:12;;;;;;;7.88;4.70;;;14.40;99.90;;;15.16;88.42;97523.19;11117080;26;20259;-63
2024/04/15 08:54:18;;;;;;;8.18;5.68;;;14.50;99.90;;;15.43;87.86;97494.91;11108462;26;20290;-61
2024/04/15 08:59:25;;;;;;;6.82;5.07;;;14.70;99.90;;;15.65;87.28;97476.72;11109338;26;20256;-63
2024/04/15 09:04:33;;;;;;;6.75;4.75;;;14.90;99.90;;;15.90;84.39;97462.88;11110607;26;20291;-64
2024/04/15 09:09:39;;;;;;;5.80;4.90;;;15.10;99.90;;;15.97;84.63;97453.66;11111285;26;20539;-64
2024/04/15 09:14:47;;;;;;;6.57;4.80;;;15.10;99.90;;;15.97;84.46;97443.34;11106672;26;20345;-63
2024/04/15 09:19:55;;;;;;;6.10;5.05;;;15.00;99.90;;;15.90;83.55;97446.56;11109341;26;20260;-63
2024/04/15 09:25:01;;;;;;;5.05;4.57;;;15.00;99.90;;;16.10;83.26;97448.00;11111694;26;20302;-63
2024/04/15 09:30:09;;;;;;;6.30;4.72;;;15.20;99.90;;;16.53;79.45;97445.75;11110453;26;20290;-63
2024/04/15 09:35:17;;;;;;;5.95;5.07;;;15.50;99.90;;;16.96;80.29;97455.50;11113890;26;20793;-63
2024/04/15 09:40:25;;;;;;;6.60;4.70;;;16.10;99.90;;;17.91;75.41;97455.22;11111953;26;20251;-63
2024/04/15 09:45:31;;;;;;;7.07;4.30;;;17.30;99.90;;;18.36;68.61;97459.56;11114366;26;20352;-63
2024/04/15 09:50:44;;;;;;;4.70;4.30;;;17.50;99.90;;;18.44;66.63;97447.66;11111725;26;20294;-61
2024/04/15 09:55:55;;;;;;;5.95;4.78;;;17.60;99.90;;;18.71;66.30;97446.44;11106042;26;20255;-62
2024/04/15 10:01:02;;;;;;;5.13;4.38;;;17.90;99.90;;;18.46;65.51;97435.63;11097486;26;20263;-61
2024/04/15 10:06:14;;;;;;;5.70;4.18;;;17.60;99.90;;;18.51;65.81;97433.09;11098228;26;20256;-61
2024/04/15 10:11:20;;;;;;;4.72;4.13;;;17.70;99.90;;;18.72;62.71;97424.03;11102747;26;20657;-64
2024/04/15 10:16:25;;;;;;;4.75;4.10;;;17.70;99.90;;;18.80;62.71;97415.56;11099921;26;20260;-63
2024/04/15 10:21:45;;;;;;;6.35;4.30;;;17.60;99.90;;;18.72;64.66;97400.72;11101769;26;20286;-63
2024/04/15 10:26:51;;;;;;;4.30;3.63;;;17.70;99.90;;;18.72;62.52;97399.00;11097976;26;20260;-62
2024/04/15 10:31:59;;;;;;;4.38;3.67;;;17.90;99.90;;;18.69;60.58;97392.03;11101488;26;20727;-64
2024/04/15 10:37:11;;;;;;;3.97;3.58;;;17.70;99.90;;;18.38;62.85;97374.22;11106745;26;20264;-61
2024/04/15 10:42:17;;;;;;;4.07;3.40;;;17.40;99.90;;;18.54;62.97;97370.19;11108573;26;20264;-61
2024/04/15 10:47:24;;;;;;;3.67;3.38;;;17.50;99.90;;;18.92;62.17;97344.97;11109421;26;20259;-61
2024/04/15 10:52:32;;;;;;;4.65;3.50;;;18.00;99.90;;;19.33;60.77;97340.41;11109084;26;20310;-61
2024/04/15 10:57:39;;;;;;;4.90;3.10;;;18.40;99.90;;;19.11;59.91;97327.97;11109321;26;20263;-62
2024/04/15 11:02:46;;;;;;;4.57;3.08;;;18.30;99.90;;;18.82;61.66;97332.72;11109379;26;20620;-62
2024/04/15 11:07:54;;;;;;;4.88;3.05;;;17.80;99.90;;;18.58;62.17;97325.41;11110600;26;20252;-61
2024/04/15 11:13:00;;;;;;;5.75;3.53;;;17.30;99.90;;;18.24;63.20;97319.63;11108905;26;20263;-62
2024/04/15 11:18:06;;;;;;;5.32;2.90;;;17.00;99.90;;;18.05;63.84;97317.53;11104592;26;20365;-62
2024/04/15 11:23:15;;;;;;;5.68;3.50;;;16.80;99.90;;;17.79;66.18;97305.84;11109116;26;20298;-62
2024/04/15 11:28:22;;;;;;;5.70;3.30;;;16.60;99.90;;;17.43;68.30;97297.34;11108622;26;20255;-62
2024/04/15 11:33:30;;;;;;;4.10;3.45;;;16.40;99.90;;;17.49;69.31;97266.44;11104609;26;20396;-63
2024/04/15 11:38:38;;;;;;;3.95;3.28;;;16.60;99.90;;;18.05;67.93;97251.16;11107495;26;20637;-61
2024/04/15 11:43:44;;;;;;;4.88;3.35;;;17.20;99.90;;;18.40;64.74;97237.97;11105609;26;20750;-63
2024/04/15 11:48:51;;;;;;;4.35;3.35;;;17.50;99.90;;;18.23;65.91;97229.94;11106983;26;20268;-61
2024/04/15 11:53:59;;;;;;;5.53;3.50;;;17.20;99.90;;;17.87;69.05;97220.66;11108555;26;20251;-63
2024/04/15 11:59:04;;;;;;;5.07;3.80;;;16.90;99.90;;;17.86;67.98;97200.84;11107797;26;20282;-63
2024/04/15 12:04:10;;;;;;;4.55;3.15;;;16.80;99.90;;;17.58;74.29;97202.00;11106764;26;20747;-62
2024/04/15 12:09:23;;;;;;;4.40;3.53;;;16.60;99.90;;;17.47;76.96;97194.06;11107974;26;20281;-62
2024/04/15 12:14:29;;;;;;;5.80;3.72;;;16.50;99.90;;;17.51;77.08;97182.94;11104212;26;20604;-64
2024/04/15 12:19:34;;;;;;;5.88;3.72;;;16.50;99.90;;;17.64;76.66;97158.19;11106232;26;20754;-62
2024/04/15 12:24:42;;;;;;;5.20;3.40;;;16.60;99.90;;;17.91;75.59;97134.56;11107514;26;20255;-62
2024/04/15 12:30:10;;;;;;;5.70;3.78;;;17.00;99.90;;;18.36;71.24;97128.34;11106059;26;20319;-63
2024/04/15 12:35:16;;;;;;;6.82;3.75;;;17.50;99.90;;;18.61;66.70;97115.78;11106814;26;21080;-62
2024/04/15 12:40:24;;;;;;;5.72;3.50;;;17.60;99.90;;;18.53;67.41;97104.44;11105434;26;20902;-61
2024/04/15 12:45:30;;;;;;;4.97;3.15;;;17.70;99.90;;;18.75;66.69;97083.19;11105894;26;20302;-63
2024/04/15 12:50:35;;;;;;;5.28;3.20;;;17.80;99.90;;;19.27;64.29;97060.44;11107201;26;20260;-64
2024/04/15 12:55:45;;;;;;;5.65;3.00;;;18.40;99.90;;;19.47;60.25;97034.72;11106856;26;20260;-62
2024/04/15 13:00:51;;;;;;;4.40;2.85;;;18.70;99.90;;;19.43;60.26;97011.34;11104406;26;20259;-64
2024/04/15 13:05:58;;;;;;;3.35;2.70;;;18.60;99.90;;;19.29;60.86;96996.56;11096335;26;20267;-65
2024/04/15 13:11:07;;;;;;;5.53;2.75;;;18.20;99.90;;;18.95;64.18;96984.16;11103778;26;20252;-63
2024/04/15 13:16:13;;;;;;;3.45;2.30;;;18.10;99.90;;;18.14;71.54;96984.03;11104093;26;20252;-62
2024/04/15 13:21:18;;;;;;;5.40;2.72;;;17.50;99.90;;;18.00;69.28;96970.94;11104238;26;20259;-62
2024/04/15 13:26:27;;;;;;;4.95;2.70;;;17.30;99.90;;;18.11;70.44;96963.28;11106623;26;20882;-62
2024/04/15 13:31:32;;;;;;;4.25;2.45;;;17.50;99.90;;;18.20;68.58;96942.75;11108791;26;20360;-61
2024/04/15 13:36:38;;;;;;;5.07;2.72;;;17.70;99.90;;;18.15;68.88;96945.25;11103796;26;20865;-65
2024/04/15 13:41:47;;;;;;;4.13;2.50;;;17.50;99.90;;;18.09;69.16;96942.59;11102800;26;20298;-63
2024/04/15 13:46:52;;;;;;;3.65;2.65;;;17.30;99.90;;;17.97;69.55;96930.38;11103370;26;20259;-61
2024/04/15 13:51:59;;;;;;;3.67;2.60;;;17.00;99.90;;;17.87;70.96;96919.91;11101956;26;20306;-62
2024/04/15 13:57:08;;;;;;;4.22;2.90;;;17.10;99.90;;;18.12;66.99;96932.28;11101700;26;20790;-62
2024/04/15 14:02:15;;;;;;;5.35;3.20;;;17.20;99.90;;;18.20;66.77;96901.34;11094635;26;20251;-66
2024/04/15 14:07:20;;;;;;;3.17;2.30;;;17.40;99.90;;;18.31;64.44;96907.50;11102320;26;20332;-62
2024/04/15 14:12:29;;;;;;;3.45;2.90;;;17.40;99.90;;;18.39;63.66;96890.34;11113165;26;20271;-65
2024/04/15 14:17:35;;;;;;;5.60;2.65;;;17.60;99.90;;;18.66;63.44;96884.59;11107635;26;20294;-63
2024/04/15 14:22:41;;;;;;;5.65;2.50;;;17.80;99.90;;;18.84;62.33;96876.13;11112094;26;20651;-63
2024/04/15 14:27:49;;;;;;;4.35;2.60;;;18.10;99.90;;;18.94;65.33;96860.69;11110287;26;20381;-64
2024/04/15 14:32:54;;;;;;;3.50;2.50;;;17.90;99.90;;;19.03;64.15;96837.44;11086972;26;20260;-64
2024/04/15 14:38:00;;;;;;;5.38;2.63;;;18.10;99.90;;;18.94;62.02;96824.41;11099522;26;20307;-63
2024/04/15 14:43:08;;;;;;;4.32;2.25;;;18.10;99.90;;;18.84;64.04;96808.81;11125065;26;20259;-63
2024/04/15 14:48:14;;;;;;;5.28;2.60;;;18.00;99.90;;;18.81;58.42;96815.69;11122561;26;20651;-65
2024/04/15 14:53:19;;;;;;;2.95;2.08;;;18.00;99.90;;;18.74;54.60;96804.41;11120671;26;20271;-64
2024/04/15 14:58:27;;;;;;;3.13;2.17;;;18.00;99.90;;;18.57;54.66;96801.69;11113034;26;20272;-64
2024/04/15 15:03:33;;;;;;;6.78;2.80;;;17.90;99.90;;;18.73;52.75;96787.13;11107272;26;20298;-64
2024/04/15 15:08:40;;;;;;;3.50;2.20;;;18.10;99.00;;;18.60;53.76;96769.75;11119594;26;20256;-64
2024/04/15 15:13:48;;;;;;;4.57;2.50;;;17.90;98.90;;;18.67;52.76;96768.97;11110612;26;20256;-62
2024/04/15 15:18:54;;;;;;;5.68;2.25;;;17.80;98.90;;;18.63;51.48;96762.03;11100226;26;20259;-65
2024/04/15 15:24:00;;;;;;;3.33;1.98;;;17.90;97.80;;;18.68;48.70;96769.00;11105133;26;20274;-62
2024/04/15 15:29:11;;;;;;;2.92;2.00;;;18.10;94.50;;;18.94;48.71;96754.50;11088848;26;20825;-64
2024/04/15 15:34:16;;;;;;;2.67;2.00;;;18.30;93.80;;;19.04;47.72;96735.56;11085473;26;20256;-63
2024/04/15 15:39:22;;;;;;;3.58;1.67;;;18.40;92.90;;;19.06;46.60;96734.72;11097736;26;20255;-63
2024/04/15 15:44:32;;;;;;;2.80;2.10;;;18.40;92.00;;;18.78;47.83;96738.88;11093809;26;20607;-63
2024/04/15 15:49:37;;;;;;;3.10;1.95;;;18.10;93.20;;;18.68;48.93;96732.75;11089561;26;20264;-63
2024/04/15 15:54:43;;;;;;;4.30;2.10;;;17.90;94.10;;;18.53;48.35;96721.41;11216958;21;20258;-63
2024/04/15 15:59:51;;;;;;;3.45;1.90;;;17.80;93.80;;;18.40;48.59;96699.75;11239271;26;20280;-63
2024/04/15 16:04:57;;;;;;;3.60;1.42;;;17.60;93.50;;;18.31;48.87;96722.94;11171430;26;20250;-64
2024/04/15 16:10:02;;;;;;;4.03;2.00;;;17.50;94.00;;;18.28;48.93;96716.03;11165691;26;20250;-64
2024/04/15 16:15:11;;;;;;;1.77;1.40;;;17.50;94.20;;;18.33;47.68;96714.34;11177853;26;20358;-63
2024/04/15 16:20:16;;;;;;;3.20;1.83;;;17.50;92.60;;;18.35;45.24;96704.88;11193382;26;20297;-65
2024/04/15 16:25:21;;;;;;;2.08;1.63;;;17.60;90.20;;;18.24;45.10;96703.94;11190103;26;20301;-64
2024/04/15 16:30:30;;;;;;;2.30;1.40;;;17.50;90.00;;;18.13;43.84;96714.16;11193142;26;20258;-63
2024/04/15 16:35:35;;;;;;;3.15;1.95;;;17.40;87.10;;;17.98;43.45;96693.34;11184043;26;20262;-64
2024/04/15 16:40:41;;;;;;;2.80;1.55;;;17.10;86.30;;;17.71;44.37;96702.56;11185018;26;20301;-63
2024/04/15 16:45:49;;;;;;;3.97;1.60;;;17.00;87.50;;;17.70;43.72;96711.13;11185192;26;20293;-63
2024/04/15 16:50:54;;;;;;;2.85;1.90;;;16.90;85.70;;;17.68;43.28;96730.06;11181301;26;20258;-64
2024/04/15 16:56:00;;;;;;;2.60;1.58;;;16.90;85.30;;;17.54;44.59;96704.97;11185186;26;20266;-64
2024/04/15 17:01:08;;;;;;;2.92;1.83;;;16.70;87.50;;;17.38;45.13;96718.53;11184220;26;20620;-62
2024/04/15 17:06:14;;;;;;;4.30;2.10;;;16.60;89.00;;;16.97;46.83;96720.59;11184379;26;20289;-61
2024/04/15 17:11:19;;;;;;;3.90;1.80;;;16.30;91.10;;;16.93;46.44;96723.97;11185672;26;20262;-64
2024/04/15 17:16:27;;;;;;;2.83;2.15;;;16.20;90.70;;;16.72;47.17;96724.53;11172671;26;20539;-64
2024/04/15 17:21:33;;;;;;;3.22;1.50;;;16.00;91.00;;;16.62;44.99;96726.06;11172832;26;20792;-64
2024/04/15 17:26:39;;;;;;;3.75;1.50;;;15.90;88.70;;;16.48;44.84;96732.75;11169793;26;20754;-63
2024/04/15 17:31:47;;;;;;;3.47;1.70;;;15.80;88.20;;;16.35;46.16;96736.84;11169402;26;20701;-65
2024/04/15 17:36:52;;;;;;;3.95;2.03;;;15.60;89.20;;;16.29;45.13;96726.44;11175347;26;20255;-64
2024/04/15 17:41:58;;;;;;;3.58;1.70;;;15.60;88.40;;;16.15;45.89;96741.69;11172075;26;20907;-65
2024/04/15 17:47:07;;;;;;;3.80;1.50;;;15.40;88.20;;;16.14;44.95;96745.09;11170082;26;20756;-64
2024/04/15 17:52:14;;;;;;;1.90;1.20;;;15.40;86.60;;;16.08;45.58;96751.03;11174747;26;20259;-64
2024/04/15 17:57:19;;;;;;;3.75;1.65;;;15.30;87.40;;;16.02;45.73;96750.88;11182997;26;20266;-64
2024/04/15 18:02:27;;;;;;;3.58;1.88;;;15.30;88.30;;;15.73;45.88;96764.09;11182624;26;20617;-64
2024/04/15 18:07:33;;;;;;;3.28;1.60;;;15.10;88.40;;;15.60;45.20;96766.41;11182675;26;20397;-63
2024/04/15 18:12:41;;;;;;;3.28;1.67;;;15.00;87.30;;;15.67;45.02;96774.25;11180065;26;20708;-64
2024/04/15 18:17:49;;;;;;;5.70;1.65;;;15.00;85.70;;;15.65;44.91;96781.13;11182061;26;20270;-62
2024/04/15 18:22:54;;;;;;;2.53;1.48;;;15.00;85.30;;;15.55;45.17;96789.47;11173476;26;20270;-64
2024/04/15 18:28:00;;;;;;;2.63;1.60;;;14.90;85.60;;;15.41;45.06;96802.06;11171205;26;20593;-64
2024/04/15 18:33:08;;;;;;;3.95;1.90;;;14.80;86.20;;;15.31;44.84;96790.72;11170800;26;20270;-64
2024/04/15 18:38:15;;;;;;;3.67;1.60;;;14.60;85.90;;;15.15;45.61;96798.94;11174671;26;20347;-64
2024/04/15 18:43:20;;;;;;;2.30;1.65;;;14.50;87.30;;;15.10;46.49;96795.41;11165914;26;20302;-64
2024/04/15 18:48:29;;;;;;;2.35;1.42;;;14.30;89.00;;;15.21;45.26;96783.63;11170485;26;21105;-62
2024/04/15 18:53:35;;;;;;;3.83;1.40;;;14.30;87.00;;;15.35;44.40;96795.94;11173113;26;20298;-64
2024/04/15 18:58:40;;;;;;;3.30;1.58;;;14.50;86.50;;;15.29;44.53;96802.69;11179946;26;20304;-64
2024/04/15 19:03:49;;;;;;;4.93;1.33;;;14.50;85.90;;;15.29;43.97;96797.53;11175851;26;20259;-63
2024/04/15 19:08:55;;;;;;;3.78;1.30;;;14.60;84.40;;;15.37;43.38;96817.44;11173277;26;20301;-62
2024/04/15 19:14:01;;;;;;;3.03;1.33;;;14.80;82.20;;;15.37;43.50;96827.75;11176327;26;20941;-63
2024/04/15 19:19:09;;;;;;;2.28;1.20;;;14.80;82.10;;;15.28;43.52;96829.28;11180228;26;20297;-64
2024/04/15 19:24:15;;;;;;;4.00;1.27;;;14.70;82.60;;;15.08;46.88;96978.13;11177840;26;20262;-64
2024/04/15 19:29:21;;;;;;;2.65;1.45;;;14.40;88.70;;;14.10;53.33;97015.66;11183821;26;20277;-63
2024/04/15 19:34:29;;;;;;;1.65;1.20;;;13.50;95.50;;;13.19;56.54;97052.97;11182659;26;20255;-64
2024/04/15 19:39:35;;;;;;;3.22;1.20;;;12.50;98.80;;;12.55;58.63;97072.13;11183931;26;20890;-63
2024/04/15 19:44:41;;;;;;;1.40;1.30;;;11.80;99.90;;;11.89;59.26;97100.38;11175864;26;21988;-64
2024/04/15 19:49:49;;;;;;;1.67;1.58;;;11.00;99.90;;;11.43;59.91;97124.06;11180306;26;20657;-64
2024/04/15 19:54:54;;;;;;;1.83;1.15;;;10.60;99.90;;;10.65;62.22;97134.38;11186464;26;20258;-64
2024/04/15 20:00:00;;;;;;;1.70;1.33;;;10.00;99.90;;;10.50;62.83;97159.19;11175640;26;20278;-63
2024/04/15 20:05:09;;;;;;;1.45;1.42;;;9.80;99.90;;;10.38;63.60;97177.41;11156601;26;20251;-62
2024/04/15 20:10:15;;;;;;;1.27;1.17;;;9.70;99.90;;;9.57;65.04;97193.88;11144904;26;20259;-63
2024/04/15 20:15:21;;;;;;;2.87;1.63;;;9.20;99.90;;;8.88;67.35;97178.47;11157171;26;20248;-63
2024/04/15 20:20:43;;;;;;;1.40;1.30;;;8.40;99.90;;;8.73;68.39;97203.16;11150293;26;20888;-63
2024/04/15 20:25:49;;;;;;;1.63;1.60;;;8.20;99.90;;;8.36;70.16;97201.13;11162044;26;20735;-63
2024/04/15 20:30:55;;;;;;;1.57;1.47;;;8.00;99.90;;;7.97;71.49;97208.31;11162939;26;20254;-62
2024/04/15 20:36:04;;;;;;;1.80;1.70;;;7.50;99.90;;;8.08;74.57;97194.50;11155950;26;20258;-64
2024/04/15 20:41:09;;;;;;;1.50;1.40;;;7.50;99.90;;;7.53;75.22;97247.34;11173310;26;20258;-64
2024/04/15 20:46:15;;;;;;;2.53;1.73;;;7.20;99.90;;;7.61;75.63;97243.59;11152261;26;21357;-64
2024/04/15 20:51:23;;;;;;;1.80;1.70;;;7.10;99.90;;;7.38;80.87;97276.91;11158693;26;20263;-63
2024/04/15 20:56:29;;;;;;;1.80;1.70;;;6.90;99.90;;;7.04;83.94;97299.41;11147803;26;20255;-63
2024/04/15 21:01:35;;;;;;;2.20;2.00;;;6.60;99.90;;;7.19;86.66;97308.88;11154432;26;20316;-63
2024/04/15 21:06:43;;;;;;;2.07;1.70;;;6.60;99.90;;;6.99;89.26;97355.03;11152881;26;20297;-63
2024/04/15 21:11:49;;;;;;;1.80;1.70;;;6.60;99.90;;;6.87;90.94;97364.44;11154367;26;20313;-63
2024/04/15 21:16:54;;;;;;;2.20;2.00;;;6.50;99.90;;;6.74;92.43;97350.94;11145842;26;20286;-64